createdAt,value
2023-04-17T00:00:24.551Z,101489.14
2023-04-17T00:01:24.630Z,101489.06
2023-04-17T00:02:25.460Z,101488.31
2023-04-17T00:03:25.583Z,101487.69
2023-04-17T00:04:26.490Z,101487.09
2023-04-17T00:05:26.980Z,101486.34
2023-04-17T00:06:27.721Z,101485.81
2023-04-17T00:07:28.467Z,101485.39
2023-04-17T00:08:29.302Z,101484.69
2023-04-17T00:09:29.631Z,101484.52
2023-04-17T00:10:31.153Z,101483.81
2023-04-17T00:10:40.882Z,101383.37
2023-04-17T00:11:41.737Z,101482.56
2023-04-17T00:12:42.104Z,101481.64
2023-04-17T00:13:42.759Z,101480.63
2023-04-17T00:14:43.641Z,101479.73
2023-04-17T00:15:44.208Z,101478.72
2023-04-17T00:16:45.074Z,101477.65
2023-04-17T00:17:45.501Z,101476.89
2023-04-17T00:18:46.188Z,101476.55
2023-04-17T00:19:46.995Z,101475.71
2023-04-17T00:20:47.578Z,101474.11
2023-04-17T00:21:48.024Z,101473.35
2023-04-17T00:22:48.879Z,101472.26
2023-04-17T00:23:49.513Z,101471.30
2023-04-17T00:24:00.319Z,101436.77
2023-04-17T00:25:01.145Z,101464.93
2023-04-17T00:26:01.955Z,101464.17
2023-04-17T00:27:02.776Z,101464.09
2023-04-17T00:28:03.102Z,101463.58
2023-04-17T00:29:03.099Z,101463.24
2023-04-17T00:30:03.687Z,101462.66
2023-04-17T00:31:04.577Z,101462.48
2023-04-17T00:32:05.391Z,101462.15
2023-04-17T00:33:06.996Z,101461.81
2023-04-17T00:34:06.702Z,101461.39
2023-04-17T00:34:28.978Z,101448.98
2023-04-17T00:35:27.862Z,101468.25
2023-04-17T00:36:28.029Z,101467.32
2023-04-17T00:37:28.736Z,101467.06
2023-04-17T00:38:30.038Z,101465.72
2023-04-17T00:39:29.181Z,101464.54
2023-04-17T00:40:29.671Z,101463.36
2023-04-17T00:41:30.557Z,101462.60
2023-04-17T00:42:30.589Z,101461.81
2023-04-17T00:43:31.494Z,101460.30
2023-04-17T00:44:31.993Z,101459.63
2023-04-17T00:45:32.670Z,101458.95
2023-04-17T00:46:33.241Z,101458.50
2023-04-17T00:47:35.037Z,101457.91
2023-04-17T00:48:34.838Z,101456.56
2023-04-17T00:49:35.320Z,101455.72
2023-04-17T00:50:36.208Z,101455.13
2023-04-17T00:51:37.158Z,101454.12
2023-04-17T00:52:38.089Z,101452.77
2023-04-17T00:53:38.854Z,101451.59
2023-04-17T00:54:39.668Z,101451.00
2023-04-17T00:54:56.844Z,101418.08
2023-04-17T00:55:57.183Z,101446.25
2023-04-17T00:56:57.203Z,101445.41
2023-04-17T00:57:58.032Z,101444.48
2023-04-17T00:58:58.574Z,101443.81
2023-04-17T00:59:59.163Z,101443.13
2023-04-17T01:00:59.303Z,101442.20
2023-04-17T01:02:01.262Z,101441.37
2023-04-17T01:03:01.156Z,101441.03
2023-04-17T01:04:02.071Z,101439.84
2023-04-17T01:05:02.385Z,101439.66
2023-04-17T01:06:03.306Z,101438.73
2023-04-17T01:07:04.090Z,101438.02
2023-04-17T01:08:04.207Z,101437.52
2023-04-17T01:09:04.443Z,101436.81
2023-04-17T01:09:16.306Z,101432.09
2023-04-17T01:10:15.484Z,101428.78
2023-04-17T01:11:16.132Z,101428.44
2023-04-17T01:12:16.466Z,101428.11
2023-04-17T01:13:17.301Z,101428.02
2023-04-17T01:14:17.560Z,101427.94
2023-04-17T01:15:18.344Z,101427.46
2023-04-17T01:16:18.941Z,101427.32
2023-04-17T01:17:19.625Z,101427.91
2023-04-17T01:18:19.986Z,101427.57
2023-04-17T01:19:20.123Z,101427.34
2023-04-17T01:20:20.741Z,101427.09
2023-04-17T01:21:21.379Z,101427.09
2023-04-17T01:22:23.311Z,101427.09
2023-04-17T01:23:22.996Z,101426.76
2023-04-17T01:23:32.762Z,101415.97
2023-04-17T01:24:33.111Z,101437.91
2023-04-17T01:25:33.357Z,101436.90
2023-04-17T01:26:34.218Z,101436.23
2023-04-17T01:27:35.847Z,101435.55
2023-04-17T01:28:35.173Z,101435.19
2023-04-17T01:29:35.981Z,101435.10
2023-04-17T01:30:36.393Z,101434.68
2023-04-17T01:31:36.757Z,101434.17
2023-04-17T01:32:37.401Z,101434.09
2023-04-17T01:33:37.999Z,101433.98
2023-04-17T01:34:38.325Z,101433.39
2023-04-17T01:35:38.753Z,101432.97
2023-04-17T01:35:48.066Z,101298.03
2023-04-17T01:36:48.272Z,101438.73
2023-04-17T01:37:48.368Z,101437.71
2023-04-17T01:38:48.623Z,101437.20
2023-04-17T01:39:48.885Z,101437.04
2023-04-17T01:40:49.687Z,101436.78
2023-04-17T01:41:50.172Z,101436.62
2023-04-17T01:42:50.847Z,101436.20
2023-04-17T01:43:50.968Z,101435.77
2023-04-17T01:44:51.127Z,101435.61
2023-04-17T01:45:51.890Z,101435.09
2023-04-17T01:46:52.567Z,101435.19
2023-04-17T01:47:53.582Z,101434.84
2023-04-17T01:48:54.137Z,101434.77
2023-04-17T01:49:03.407Z,101362.97
2023-04-17T01:50:03.412Z,101441.20
2023-04-17T01:51:04.413Z,101440.86
2023-04-17T01:52:05.121Z,101439.84
2023-04-17T01:53:05.247Z,101439.59
2023-04-17T01:54:06.174Z,101439.17
2023-04-17T01:55:06.241Z,101438.25
2023-04-17T01:56:07.096Z,101437.91
2023-04-17T01:57:07.740Z,101437.41
2023-04-17T01:58:08.143Z,101437.06
2023-04-17T01:59:09.150Z,101436.56
2023-04-17T02:00:09.825Z,101436.22
2023-04-17T02:01:10.381Z,101436.23
2023-04-17T02:01:19.661Z,101271.73
2023-04-17T02:02:21.232Z,101442.20
2023-04-17T02:03:20.960Z,101441.36
2023-04-17T02:04:21.581Z,101440.44
2023-04-17T02:05:21.882Z,101439.45
2023-04-17T02:06:22.941Z,101439.37
2023-04-17T02:07:23.537Z,101438.39
2023-04-17T02:08:24.294Z,101437.70
2023-04-17T02:09:24.991Z,101436.81
2023-04-17T02:10:25.915Z,101436.25
2023-04-17T02:11:25.958Z,101435.66
2023-04-17T02:12:25.954Z,101434.84
2023-04-17T02:13:26.585Z,101433.58
2023-04-17T02:13:35.321Z,101356.77
2023-04-17T02:14:35.681Z,101427.94
2023-04-17T02:15:36.367Z,101427.34
2023-04-17T02:16:36.940Z,101426.67
2023-04-17T02:17:38.020Z,101425.74
2023-04-17T02:18:38.505Z,101424.93
2023-04-17T02:19:40.077Z,101425.02
2023-04-17T02:20:39.775Z,101424.67
2023-04-17T02:21:40.422Z,101424.70
2023-04-17T02:22:41.369Z,101424.62
2023-04-17T02:23:42.136Z,101425.04
2023-04-17T02:24:42.768Z,101424.40
2023-04-17T02:24:51.486Z,101318.91
2023-04-17T02:25:51.534Z,101436.03
2023-04-17T02:26:52.085Z,101435.47
2023-04-17T02:27:52.617Z,101435.12
2023-04-17T02:28:53.211Z,101434.54
2023-04-17T02:29:53.366Z,101434.38
2023-04-17T02:30:54.197Z,101434.12
2023-04-17T02:31:54.756Z,101433.89
2023-04-17T02:32:55.812Z,101433.64
2023-04-17T02:33:55.379Z,101433.22
2023-04-17T02:34:55.497Z,101433.25
2023-04-17T02:35:56.148Z,101433.50
2023-04-17T02:36:57.257Z,101433.61
2023-04-17T02:37:06.426Z,101361.16
2023-04-17T02:38:06.416Z,101448.75
2023-04-17T02:39:06.676Z,101447.31
2023-04-17T02:40:07.244Z,101446.56
2023-04-17T02:41:07.907Z,101445.49
2023-04-17T02:42:08.267Z,101444.82
2023-04-17T02:43:10.052Z,101444.23
2023-04-17T02:44:09.280Z,101443.64
2023-04-17T02:45:09.404Z,101442.73
2023-04-17T02:46:09.460Z,101442.06
2023-04-17T02:47:09.998Z,101441.56
2023-04-17T02:48:10.348Z,101440.30
2023-04-17T02:48:20.042Z,101339.64
2023-04-17T02:49:20.585Z,101440.05
2023-04-17T02:50:21.094Z,101439.28
2023-04-17T02:51:22.724Z,101438.78
2023-04-17T02:52:23.411Z,101438.69
2023-04-17T02:53:23.088Z,101438.19
2023-04-17T02:54:23.668Z,101437.94
2023-04-17T02:55:24.062Z,101437.59
2023-04-17T02:56:24.507Z,101437.59
2023-04-17T02:57:25.068Z,101437.59
2023-04-17T02:58:26.070Z,101437.77
2023-04-17T02:59:26.206Z,101437.55
2023-04-17T03:00:26.729Z,101438.22
2023-04-17T03:00:36.986Z,101256.95
2023-04-17T03:01:39.992Z,101449.17
2023-04-17T03:02:38.227Z,101448.75
2023-04-17T03:03:38.144Z,101448.52
2023-04-17T03:04:38.984Z,101447.71
2023-04-17T03:05:39.458Z,101446.98
2023-04-17T03:06:40.018Z,101446.56
2023-04-17T03:07:40.349Z,101445.55
2023-04-17T03:08:40.727Z,101444.90
2023-04-17T03:09:41.043Z,101444.81
2023-04-17T03:10:41.068Z,101444.39
2023-04-17T03:11:41.622Z,101444.34
2023-04-17T03:12:42.246Z,101444.34
2023-04-17T03:12:53.979Z,101287.96
2023-04-17T03:13:54.131Z,101446.08
2023-04-17T03:14:54.694Z,101445.73
2023-04-17T03:15:55.178Z,101445.23
2023-04-17T03:16:56.213Z,101445.38
2023-04-17T03:17:56.808Z,101445.30
2023-04-17T03:18:57.349Z,101445.38
2023-04-17T03:19:58.327Z,101445.30
2023-04-17T03:20:58.993Z,101445.77
2023-04-17T03:21:59.847Z,101445.52
2023-04-17T03:23:00.534Z,101445.41
2023-04-17T03:24:00.761Z,101445.48
2023-04-17T03:25:01.182Z,101445.41
2023-04-17T03:25:12.829Z,101343.20
2023-04-17T03:26:13.388Z,101457.06
2023-04-17T03:27:13.489Z,101455.97
2023-04-17T03:28:14.112Z,101455.63
2023-04-17T03:29:14.642Z,101455.13
2023-04-17T03:30:16.158Z,101454.53
2023-04-17T03:31:15.699Z,101454.20
2023-04-17T03:32:16.406Z,101454.28
2023-04-17T03:33:16.866Z,101453.69
2023-04-17T03:34:17.498Z,101453.44
2023-04-17T03:35:18.094Z,101453.13
2023-04-17T03:36:18.680Z,101453.08
2023-04-17T03:36:27.370Z,101371.80
2023-04-17T03:37:27.928Z,101463.94
2023-04-17T03:38:28.548Z,101463.34
2023-04-17T03:39:29.906Z,101463.01
2023-04-17T03:40:29.528Z,101462.19
2023-04-17T03:41:30.514Z,101461.27
2023-04-17T03:42:30.547Z,101460.84
2023-04-17T03:43:31.705Z,101460.08
2023-04-17T03:44:31.354Z,101459.75
2023-04-17T03:45:32.275Z,101459.02
2023-04-17T03:46:32.847Z,101458.91
2023-04-17T03:46:41.598Z,101378.22
2023-04-17T03:47:42.028Z,101464.13
2023-04-17T03:48:42.380Z,101463.79
2023-04-17T03:49:43.088Z,101463.28
2023-04-17T03:50:43.936Z,101462.44
2023-04-17T03:51:45.426Z,101461.77
2023-04-17T03:52:46.065Z,101461.59
2023-04-17T03:53:46.646Z,101461.43
2023-04-17T03:54:47.239Z,101460.92
2023-04-17T03:55:46.763Z,101460.67
2023-04-17T03:56:47.361Z,101459.86
2023-04-17T03:57:48.009Z,101459.78
2023-04-17T03:58:48.910Z,101459.27
2023-04-17T03:58:57.937Z,101366.61
2023-04-17T03:59:58.368Z,101456.05
2023-04-17T04:00:58.939Z,101456.05
2023-04-17T04:01:59.823Z,101455.33
2023-04-17T04:03:00.111Z,101455.05
2023-04-17T04:04:00.823Z,101454.54
2023-04-17T04:05:01.205Z,101454.29
2023-04-17T04:06:01.754Z,101454.13
2023-04-17T04:07:02.411Z,101454.30
2023-04-17T04:08:03.059Z,101453.84
2023-04-17T04:09:03.868Z,101453.67
2023-04-17T04:10:04.945Z,101453.64
2023-04-17T04:10:14.541Z,101455.20
2023-04-17T04:11:15.460Z,101459.16
2023-04-17T04:12:16.112Z,101458.41
2023-04-17T04:13:17.762Z,101457.64
2023-04-17T04:14:18.534Z,101457.22
2023-04-17T04:15:18.254Z,101456.75
2023-04-17T04:16:19.025Z,101456.66
2023-04-17T04:17:19.741Z,101456.77
2023-04-17T04:18:20.410Z,101456.44
2023-04-17T04:19:21.236Z,101456.21
2023-04-17T04:20:22.044Z,101456.55
2023-04-17T04:21:22.799Z,101456.57
2023-04-17T04:21:31.472Z,101374.28
2023-04-17T04:22:32.204Z,101462.30
2023-04-17T04:23:33.083Z,101461.70
2023-04-17T04:24:33.881Z,101461.63
2023-04-17T04:25:33.926Z,101460.78
2023-04-17T04:26:34.620Z,101460.53
2023-04-17T04:27:36.348Z,101460.75
2023-04-17T04:28:36.062Z,101461.00
2023-04-17T04:29:36.286Z,101460.92
2023-04-17T04:30:37.009Z,101461.06
2023-04-17T04:31:37.906Z,101460.98
2023-04-17T04:32:38.441Z,101460.64
2023-04-17T04:32:47.112Z,101296.48
2023-04-17T04:33:47.332Z,101466.83
2023-04-17T04:34:48.027Z,101466.27
2023-04-17T04:35:48.725Z,101466.66
2023-04-17T04:36:49.527Z,101465.64
2023-04-17T04:37:50.160Z,101465.05
2023-04-17T04:38:51.047Z,101464.97
2023-04-17T04:39:52.039Z,101464.47
2023-04-17T04:40:52.831Z,101464.08
2023-04-17T04:41:52.753Z,101463.91
2023-04-17T04:42:53.437Z,101463.79
2023-04-17T04:43:54.233Z,101462.78
2023-04-17T04:44:55.064Z,101462.86
2023-04-17T04:45:04.609Z,101363.51
2023-04-17T04:46:05.281Z,101468.06
2023-04-17T04:47:05.529Z,101467.39
2023-04-17T04:48:06.181Z,101466.63
2023-04-17T04:49:06.912Z,101465.37
2023-04-17T04:50:07.608Z,101464.78
2023-04-17T04:51:08.455Z,101464.55
2023-04-17T04:52:09.020Z,101464.47
2023-04-17T04:53:09.943Z,101463.63
2023-04-17T04:54:10.735Z,101463.41
2023-04-17T04:55:11.330Z,101463.31
2023-04-17T04:56:12.415Z,101463.27
2023-04-17T04:57:12.209Z,101462.95
2023-04-17T04:57:20.837Z,101365.83
2023-04-17T04:58:21.542Z,101465.00
2023-04-17T04:59:22.247Z,101464.67
2023-04-17T05:00:22.773Z,101464.45
2023-04-17T05:01:23.537Z,101464.36
2023-04-17T05:02:24.525Z,101464.02
2023-04-17T05:03:25.136Z,101463.97
2023-04-17T05:04:25.916Z,101463.80
2023-04-17T05:05:26.611Z,101463.20
2023-04-17T05:06:27.579Z,101463.04
2023-04-17T05:07:27.681Z,101463.04
2023-04-17T05:08:30.331Z,101462.53
2023-04-17T05:08:38.943Z,101470.80
2023-04-17T05:09:39.858Z,101468.52
2023-04-17T05:10:40.560Z,101467.67
2023-04-17T05:11:42.449Z,101467.00
2023-04-17T05:12:42.264Z,101466.58
2023-04-17T05:13:42.933Z,101466.33
2023-04-17T05:14:43.813Z,101466.47
2023-04-17T05:15:44.484Z,101466.30
2023-04-17T05:16:45.251Z,101465.85
2023-04-17T05:17:45.215Z,101466.11
2023-04-17T05:18:45.787Z,101465.91
2023-04-17T05:19:47.589Z,101466.13
2023-04-17T05:20:47.158Z,101465.97
2023-04-17T05:21:00.370Z,101413.20
2023-04-17T05:22:00.924Z,101481.55
2023-04-17T05:23:01.221Z,101480.95
2023-04-17T05:24:03.210Z,101480.03
2023-04-17T05:25:03.161Z,101479.58
2023-04-17T05:26:03.922Z,101479.08
2023-04-17T05:27:04.384Z,101478.71
2023-04-17T05:28:04.422Z,101478.38
2023-04-17T05:29:05.413Z,101478.77
2023-04-17T05:30:06.081Z,101478.23
2023-04-17T05:31:06.904Z,101478.49
2023-04-17T05:32:07.960Z,101478.55
2023-04-17T05:33:08.324Z,101478.44
2023-04-17T05:33:17.814Z,101322.11
2023-04-17T05:34:18.420Z,101485.03
2023-04-17T05:35:19.283Z,101484.52
2023-04-17T05:36:19.476Z,101483.84
2023-04-17T05:37:21.104Z,101483.17
2023-04-17T05:38:20.690Z,101482.38
2023-04-17T05:39:22.463Z,101482.05
2023-04-17T05:40:21.520Z,101482.05
2023-04-17T05:41:22.085Z,101481.88
2023-04-17T05:42:22.733Z,101482.72
2023-04-17T05:43:23.524Z,101482.69
2023-04-17T05:43:34.810Z,101415.23
2023-04-17T05:44:35.132Z,101492.45
2023-04-17T05:45:35.240Z,101491.61
2023-04-17T05:46:35.776Z,101491.52
2023-04-17T05:47:35.959Z,101491.16
2023-04-17T05:48:36.623Z,101490.83
2023-04-17T05:49:37.283Z,101491.13
2023-04-17T05:50:38.060Z,101490.52
2023-04-17T05:51:38.546Z,101490.87
2023-04-17T05:52:39.733Z,101490.51
2023-04-17T05:53:39.801Z,101489.98
2023-04-17T05:54:40.783Z,101489.70
2023-04-17T05:54:49.768Z,101419.31
2023-04-17T05:55:50.484Z,101497.95
2023-04-17T05:56:50.486Z,101497.28
2023-04-17T05:57:51.518Z,101496.50
2023-04-17T05:58:50.684Z,101494.89
2023-04-17T05:59:51.333Z,101494.30
2023-04-17T06:00:52.050Z,101493.55
2023-04-17T06:01:52.991Z,101493.52
2023-04-17T06:02:53.892Z,101492.84
2023-04-17T06:03:54.881Z,101492.22
2023-04-17T06:04:55.562Z,101491.52
2023-04-17T06:05:55.938Z,101490.98
2023-04-17T06:06:56.524Z,101490.84
2023-04-17T06:07:57.086Z,101490.31
2023-04-17T06:08:05.761Z,101439.44
2023-04-17T06:09:06.745Z,101487.02
2023-04-17T06:10:07.580Z,101486.52
2023-04-17T06:11:08.215Z,101486.27
2023-04-17T06:12:08.756Z,101486.83
2023-04-17T06:13:10.618Z,101486.96
2023-04-17T06:14:10.433Z,101486.55
2023-04-17T06:15:11.153Z,101486.97
2023-04-17T06:16:11.172Z,101487.27
2023-04-17T06:17:12.107Z,101487.95
2023-04-17T06:18:12.778Z,101488.42
2023-04-17T06:19:13.643Z,101489.23
2023-04-17T06:19:22.000Z,101464.19
2023-04-17T06:20:22.138Z,101506.03
2023-04-17T06:21:22.258Z,101505.36
2023-04-17T06:22:22.964Z,101504.91
2023-04-17T06:23:23.830Z,101504.66
2023-04-17T06:24:24.387Z,101504.73
2023-04-17T06:25:24.860Z,101504.40
2023-04-17T06:26:25.604Z,101504.70
2023-04-17T06:27:26.586Z,101505.09
2023-04-17T06:28:27.242Z,101505.52
2023-04-17T06:29:27.649Z,101505.83
2023-04-17T06:30:28.299Z,101506.64
2023-04-17T06:31:29.095Z,101507.63
2023-04-17T06:32:29.197Z,101508.35
2023-04-17T06:32:37.943Z,101368.63
2023-04-17T06:33:38.364Z,101535.00
2023-04-17T06:34:52.293Z,101534.83
2023-04-17T06:35:39.202Z,101535.11
2023-04-17T06:36:39.677Z,101536.05
2023-04-17T06:37:40.603Z,101537.81
2023-04-17T06:38:41.304Z,101539.42
2023-04-17T06:39:41.409Z,101542.03
2023-04-17T06:40:41.996Z,101543.98
2023-04-17T06:41:42.652Z,101546.42
2023-04-17T06:42:43.273Z,101548.96
2023-04-17T06:43:44.038Z,101551.88
2023-04-17T06:43:53.184Z,101476.59
2023-04-17T06:44:53.176Z,101603.73
2023-04-17T06:45:53.996Z,101603.56
2023-04-17T06:46:54.650Z,101604.41
2023-04-17T06:47:54.902Z,101605.42
2023-04-17T06:48:55.731Z,101606.27
2023-04-17T06:49:57.561Z,101607.75
2023-04-17T06:50:56.764Z,101609.61
2023-04-17T06:51:57.533Z,101611.69
2023-04-17T06:52:58.123Z,101614.02
2023-04-17T06:53:58.350Z,101616.05
2023-04-17T06:54:58.929Z,101618.72
2023-04-17T06:55:10.992Z,101591.83
2023-04-17T06:56:11.047Z,101665.41
2023-04-17T06:57:11.732Z,101665.41
2023-04-17T06:58:12.713Z,101666.48
2023-04-17T06:59:13.804Z,101667.10
2023-04-17T07:00:14.300Z,101668.81
2023-04-17T07:01:14.734Z,101670.67
2023-04-17T07:02:15.414Z,101672.05
2023-04-17T07:03:15.711Z,101673.94
2023-04-17T07:04:16.677Z,101676.17
2023-04-17T07:05:17.231Z,101678.65
2023-04-17T07:06:17.831Z,101680.79
2023-04-17T07:06:26.499Z,101634.89
2023-04-17T07:07:26.558Z,101724.05
2023-04-17T07:08:27.060Z,101723.71
2023-04-17T07:09:27.995Z,101723.23
2023-04-17T07:10:28.709Z,101723.48
2023-04-17T07:11:29.523Z,101723.15
2023-04-17T07:12:30.179Z,101722.98
2023-04-17T07:13:30.879Z,101723.41
2023-04-17T07:14:31.506Z,101723.99
2023-04-17T07:15:32.107Z,101724.41
2023-04-17T07:16:32.914Z,101725.00
2023-04-17T07:16:44.618Z,101648.39
2023-04-17T07:17:44.607Z,101743.78
2023-04-17T07:18:45.301Z,101743.88
2023-04-17T07:19:46.855Z,101744.12
2023-04-17T07:20:46.443Z,101744.52
2023-04-17T07:21:48.095Z,101745.00
2023-04-17T07:22:48.763Z,101745.64
2023-04-17T07:23:48.318Z,101745.95
2023-04-17T07:24:49.275Z,101747.25
2023-04-17T07:25:49.326Z,101748.16
2023-04-17T07:26:49.972Z,101749.22
2023-04-17T07:27:50.583Z,101750.43
2023-04-17T07:28:04.525Z,101577.67
2023-04-17T07:29:03.478Z,101779.20
2023-04-17T07:30:04.026Z,101779.13
2023-04-17T07:31:04.358Z,101778.75
2023-04-17T07:32:05.012Z,101778.98
2023-04-17T07:33:05.609Z,101779.73
2023-04-17T07:34:06.104Z,101780.75
2023-04-17T07:35:06.705Z,101782.58
2023-04-17T07:36:07.258Z,101784.50
2023-04-17T07:37:07.862Z,101785.98
2023-04-17T07:38:08.051Z,101788.16
2023-04-17T07:38:16.685Z,101624.95
2023-04-17T07:39:17.283Z,101826.36
2023-04-17T07:40:18.213Z,101826.19
2023-04-17T07:41:18.865Z,101827.08
2023-04-17T07:42:20.607Z,101827.34
2023-04-17T07:43:20.539Z,101828.27
2023-04-17T07:44:21.495Z,101829.54
2023-04-17T07:45:22.102Z,101831.56
2023-04-17T07:46:22.827Z,101832.23
2023-04-17T07:47:23.582Z,101834.13
2023-04-17T07:48:24.126Z,101836.33
2023-04-17T07:49:25.842Z,101837.20
2023-04-17T07:50:25.383Z,101838.89
2023-04-17T07:51:25.495Z,101841.03
2023-04-17T07:51:34.141Z,101710.07
2023-04-17T07:52:34.153Z,101867.37
2023-04-17T07:53:34.204Z,101867.37
2023-04-17T07:54:34.414Z,101867.37
2023-04-17T07:55:34.709Z,101867.37
2023-04-17T07:56:36.426Z,101867.29
2023-04-17T07:57:37.087Z,101867.85
2023-04-17T07:58:36.726Z,101868.08
2023-04-17T07:59:37.238Z,101868.05
2023-04-17T08:00:37.902Z,101867.99
2023-04-17T08:01:38.538Z,101867.80
2023-04-17T08:01:47.203Z,101748.56
2023-04-17T08:02:48.204Z,101869.94
2023-04-17T08:03:49.119Z,101869.52
2023-04-17T08:04:48.904Z,101870.13
2023-04-17T08:05:49.471Z,101871.20
2023-04-17T08:06:49.540Z,101872.47
2023-04-17T08:07:49.689Z,101873.66
2023-04-17T08:08:50.504Z,101874.89
2023-04-17T08:09:50.926Z,101876.22
2023-04-17T08:10:51.830Z,101877.28
2023-04-17T08:11:57.473Z,101878.45
2023-04-17T08:12:53.281Z,101880.36
2023-04-17T08:13:54.059Z,101883.17
2023-04-17T08:14:02.699Z,101919.16
2023-04-17T08:15:03.534Z,101933.06
2023-04-17T08:16:04.298Z,101933.17
2023-04-17T08:17:05.327Z,101933.17
2023-04-17T08:18:06.149Z,101934.70
2023-04-17T08:19:06.686Z,101935.34
2023-04-17T08:20:08.396Z,101935.43
2023-04-17T08:21:07.633Z,101936.11
2023-04-17T08:22:08.359Z,101937.00
2023-04-17T08:23:08.858Z,101937.48
2023-04-17T08:24:09.590Z,101938.02
2023-04-17T08:25:10.128Z,101938.80
2023-04-17T08:25:18.822Z,101840.56
2023-04-17T08:26:19.308Z,101960.59
2023-04-17T08:27:19.935Z,101959.72
2023-04-17T08:28:20.637Z,101959.85
2023-04-17T08:29:22.298Z,101960.87
2023-04-17T08:30:21.806Z,101961.77
2023-04-17T08:31:22.555Z,101962.92
2023-04-17T08:32:23.056Z,101964.76
2023-04-17T08:33:23.532Z,101965.54
2023-04-17T08:34:24.210Z,101966.10
2023-04-17T08:35:24.759Z,101967.45
2023-04-17T08:35:33.442Z,101749.62
2023-04-17T08:36:34.087Z,101994.06
2023-04-17T08:37:34.599Z,101993.98
2023-04-17T08:38:35.122Z,101994.48
2023-04-17T08:39:36.187Z,101994.91
2023-04-17T08:40:35.622Z,101995.13
2023-04-17T08:41:36.202Z,101995.95
2023-04-17T08:42:36.709Z,101997.02
2023-04-17T08:43:37.309Z,101997.98
2023-04-17T08:44:37.955Z,101999.63
2023-04-17T08:45:37.986Z,102001.43
2023-04-17T08:45:47.801Z,101930.81
2023-04-17T08:46:48.446Z,102043.00
2023-04-17T08:47:49.000Z,102043.45
2023-04-17T08:48:50.528Z,102044.08
2023-04-17T08:49:49.888Z,102044.44
2023-04-17T08:50:51.456Z,102045.57
2023-04-17T08:51:50.622Z,102046.73
2023-04-17T08:52:50.608Z,102048.03
2023-04-17T08:53:51.199Z,102049.50
2023-04-17T08:54:52.896Z,102051.14
2023-04-17T08:55:52.852Z,102052.66
2023-04-17T08:56:53.574Z,102053.71
2023-04-17T08:57:54.144Z,102055.15
2023-04-17T08:58:03.320Z,102016.14
2023-04-17T08:59:03.807Z,102074.54
2023-04-17T09:00:04.401Z,102074.28
2023-04-17T09:01:05.957Z,102073.86
2023-04-17T09:02:06.131Z,102074.09
2023-04-17T09:03:06.691Z,102074.05
2023-04-17T09:04:07.577Z,102073.64
2023-04-17T09:05:08.142Z,102074.42
2023-04-17T09:06:07.948Z,102074.93
2023-04-17T09:07:08.644Z,102075.24
2023-04-17T09:08:09.202Z,102076.40
2023-04-17T09:09:10.131Z,102077.05
2023-04-17T09:09:18.443Z,101995.46
2023-04-17T09:10:19.104Z,102082.37
2023-04-17T09:11:19.687Z,102082.37
2023-04-17T09:12:20.786Z,102081.52
2023-04-17T09:13:21.354Z,102081.74
2023-04-17T09:14:24.121Z,102082.25
2023-04-17T09:15:22.693Z,102082.37
2023-04-17T09:16:23.340Z,102082.84
2023-04-17T09:17:23.844Z,102083.10
2023-04-17T09:18:24.140Z,102084.03
2023-04-17T09:19:24.901Z,102085.30
2023-04-17T09:20:25.630Z,102085.92
2023-04-17T09:20:34.252Z,102013.77
2023-04-17T09:21:34.359Z,102096.70
2023-04-17T09:22:34.967Z,102096.53
2023-04-17T09:23:36.029Z,102097.13
2023-04-17T09:24:35.811Z,102096.92
2023-04-17T09:25:37.621Z,102096.33
2023-04-17T09:26:37.248Z,102096.33
2023-04-17T09:27:37.654Z,102096.84
2023-04-17T09:28:38.288Z,102096.90
2023-04-17T09:29:38.864Z,102097.80
2023-04-17T09:30:39.617Z,102098.02
2023-04-17T09:31:39.966Z,102098.19
2023-04-17T09:31:49.399Z,102013.11
2023-04-17T09:32:50.213Z,102106.19
2023-04-17T09:33:50.754Z,102106.35
2023-04-17T09:34:51.760Z,102106.52
2023-04-17T09:35:52.727Z,102107.00
2023-04-17T09:36:52.589Z,102107.39
2023-04-17T09:37:53.225Z,102108.66
2023-04-17T09:38:53.854Z,102109.05
2023-04-17T09:39:54.846Z,102110.69
2023-04-17T09:40:55.650Z,102111.42
2023-04-17T09:41:56.213Z,102112.04
2023-04-17T09:42:56.876Z,102112.94
2023-04-17T09:43:10.441Z,102037.95
2023-04-17T09:44:10.949Z,102129.98
2023-04-17T09:45:11.430Z,102129.73
2023-04-17T09:46:12.262Z,102130.06
2023-04-17T09:47:13.144Z,102130.66
2023-04-17T09:48:13.746Z,102130.88
2023-04-17T09:49:14.505Z,102131.23
2023-04-17T09:50:15.223Z,102131.05
2023-04-17T09:51:15.924Z,102131.00
2023-04-17T09:52:16.622Z,102131.42
2023-04-17T09:53:17.444Z,102132.11
2023-04-17T09:54:17.990Z,102132.61
2023-04-17T09:55:18.600Z,102132.73
2023-04-17T09:55:27.211Z,102031.96
2023-04-17T09:56:27.775Z,102133.95
2023-04-17T09:57:28.349Z,102133.89
2023-04-17T09:58:29.249Z,102133.55
2023-04-17T09:59:29.276Z,102133.12
2023-04-17T10:00:30.019Z,102133.05
2023-04-17T10:01:30.702Z,102132.95
2023-04-17T10:02:31.600Z,102133.12
2023-04-17T10:03:34.825Z,102132.91
2023-04-17T10:04:33.061Z,102133.58
2023-04-17T10:05:33.193Z,102134.09
2023-04-17T10:06:33.804Z,102135.28
2023-04-17T10:06:42.481Z,101921.70
2023-04-17T10:07:43.359Z,102147.36
2023-04-17T10:08:43.982Z,102146.92
2023-04-17T10:09:45.729Z,102146.76
2023-04-17T10:10:45.196Z,102146.99
2023-04-17T10:11:45.927Z,102147.33
2023-04-17T10:12:46.440Z,102147.70
2023-04-17T10:13:47.415Z,102147.70
2023-04-17T10:14:47.874Z,102147.64
2023-04-17T10:15:48.530Z,102147.42
2023-04-17T10:16:49.537Z,102147.84
2023-04-17T10:16:58.201Z,101902.02
2023-04-17T10:17:58.854Z,102155.07
2023-04-17T10:18:59.359Z,102154.91
2023-04-17T10:19:59.916Z,102153.94
2023-04-17T10:20:59.948Z,102154.05
2023-04-17T10:22:00.712Z,102154.25
2023-04-17T10:23:01.404Z,102154.63
2023-04-17T10:24:02.128Z,102155.24
2023-04-17T10:25:02.145Z,102156.92
2023-04-17T10:26:02.703Z,102159.45
2023-04-17T10:27:03.561Z,102161.50
2023-04-17T10:28:04.277Z,102163.34
2023-04-17T10:28:12.886Z,101988.50
2023-04-17T10:29:13.626Z,102184.17
2023-04-17T10:30:14.294Z,102184.52
2023-04-17T10:31:16.055Z,102184.72
2023-04-17T10:32:15.789Z,102185.23
2023-04-17T10:33:16.538Z,102185.85
2023-04-17T10:34:17.393Z,102186.45
2023-04-17T10:35:18.008Z,102187.37
2023-04-17T10:36:18.098Z,102188.41
2023-04-17T10:37:18.734Z,102189.57
2023-04-17T10:38:19.557Z,102191.34
2023-04-17T10:39:20.334Z,102193.36
2023-04-17T10:39:28.951Z,101921.61
2023-04-17T10:40:29.305Z,102218.09
2023-04-17T10:41:29.615Z,102217.92
2023-04-17T10:42:30.371Z,102218.17
2023-04-17T10:43:30.840Z,102217.88
2023-04-17T10:44:31.408Z,102218.02
2023-04-17T10:45:32.069Z,102218.19